sensor_id;sensor_type;location;lat;lon;timestamp;P1;durP1;ratioP1;P2;durP2;ratioP2
37859;SDS011;23698;52.014;5.190;2023-05-10T05:00:55;186.10;;;49.47;;
37859;SDS011;23698;52.014;5.190;2023-05-10T05:03:41;189.55;;;51.17;;
37859;SDS011;23698;52.014;5.190;2023-05-10T05:06:28;198.50;;;55.30;;
37859;SDS011;23698;52.014;5.190;2023-05-10T05:09:14;192.32;;;56.03;;
37859;SDS011;23698;52.014;5.190;2023-05-10T05:12:01;193.15;;;57.28;;
37859;SDS011;23698;52.014;5.190;2023-05-10T05:14:47;182.57;;;56.42;;
37859;SDS011;23698;52.014;5.190;2023-05-10T05:47:19;132.93;;;50.45;;
37859;SDS011;23698;52.014;5.190;2023-05-10T05:50:06;131.27;;;48.55;;
37859;SDS011;23698;52.014;5.190;2023-05-10T05:52:53;149.48;;;50.97;;
37859;SDS011;23698;52.014;5.190;2023-05-10T05:55:40;138.07;;;50.63;;
37859;SDS011;23698;52.014;5.190;2023-05-10T05:58:26;110.95;;;44.22;;
37859;SDS011;23698;52.014;5.190;2023-05-10T06:01:12;126.47;;;45.63;;
37859;SDS011;23698;52.014;5.190;2023-05-10T06:04:00;114.07;;;46.10;;
37859;SDS011;23698;52.014;5.190;2023-05-10T06:06:47;120.65;;;45.83;;
37859;SDS011;23698;52.014;5.190;2023-05-10T06:09:33;121.75;;;45.08;;
37859;SDS011;23698;52.014;5.190;2023-05-10T06:12:19;108.63;;;42.10;;
37859;SDS011;23698;52.014;5.190;2023-05-10T06:15:06;110.43;;;44.33;;
37859;SDS011;23698;52.014;5.190;2023-05-10T06:17:53;112.78;;;42.58;;
37859;SDS011;23698;52.014;5.190;2023-05-10T06:20:42;96.03;;;39.28;;
37859;SDS011;23698;52.014;5.190;2023-05-10T06:23:28;99.75;;;37.67;;
37859;SDS011;23698;52.014;5.190;2023-05-10T06:26:15;96.97;;;37.50;;
37859;SDS011;23698;52.014;5.190;2023-05-10T06:29:01;87.18;;;35.47;;
37859;SDS011;23698;52.014;5.190;2023-05-10T06:31:47;94.30;;;36.92;;
37859;SDS011;23698;52.014;5.190;2023-05-10T06:34:33;81.18;;;33.00;;
37859;SDS011;23698;52.014;5.190;2023-05-10T06:37:21;72.70;;;31.45;;
37859;SDS011;23698;52.014;5.190;2023-05-10T06:40:07;63.70;;;29.00;;
37859;SDS011;23698;52.014;5.190;2023-05-10T06:42:54;56.42;;;24.63;;
37859;SDS011;23698;52.014;5.190;2023-05-10T06:45:41;42.50;;;21.50;;
37859;SDS011;23698;52.014;5.190;2023-05-10T06:48:28;41.88;;;20.58;;
37859;SDS011;23698;52.014;5.190;2023-05-10T06:51:14;40.88;;;19.45;;
37859;SDS011;23698;52.014;5.190;2023-05-10T06:54:02;38.00;;;18.27;;
37859;SDS011;23698;52.014;5.190;2023-05-10T06:56:48;24.88;;;15.30;;
37859;SDS011;23698;52.014;5.190;2023-05-10T06:59:35;32.30;;;15.98;;
37859;SDS011;23698;52.014;5.190;2023-05-10T07:02:22;26.80;;;14.80;;
37859;SDS011;23698;52.014;5.190;2023-05-10T07:05:09;21.38;;;11.65;;
37859;SDS011;23698;52.014;5.190;2023-05-10T07:07:55;20.25;;;11.88;;
37859;SDS011;23698;52.014;5.190;2023-05-10T07:10:43;18.05;;;10.60;;
37859;SDS011;23698;52.014;5.190;2023-05-10T07:13:30;21.63;;;10.32;;
37859;SDS011;23698;52.014;5.190;2023-05-10T07:16:17;13.13;;;9.18;;
37859;SDS011;23698;52.014;5.190;2023-05-10T07:19:03;11.93;;;8.15;;
37859;SDS011;23698;52.014;5.190;2023-05-10T07:21:50;12.90;;;7.80;;
37859;SDS011;23698;52.014;5.190;2023-05-10T07:24:36;12.52;;;6.55;;
37859;SDS011;23698;52.014;5.190;2023-05-10T07:27:24;13.93;;;8.15;;
37859;SDS011;23698;52.014;5.190;2023-05-10T07:30:11;12.85;;;8.07;;
37859;SDS011;23698;52.014;5.190;2023-05-10T07:32:58;16.80;;;8.77;;
37859;SDS011;23698;52.014;5.190;2023-05-10T07:35:45;15.48;;;9.50;;
37859;SDS011;23698;52.014;5.190;2023-05-10T07:38:32;14.85;;;9.35;;
37859;SDS011;23698;52.014;5.190;2023-05-10T07:41:18;20.88;;;10.30;;
37859;SDS011;23698;52.014;5.190;2023-05-10T07:44:07;20.40;;;12.07;;
37859;SDS011;23698;52.014;5.190;2023-05-10T07:46:53;19.50;;;10.98;;
37859;SDS011;23698;52.014;5.190;2023-05-10T07:49:41;23.25;;;11.35;;
37859;SDS011;23698;52.014;5.190;2023-05-10T07:52:28;18.02;;;11.27;;
37859;SDS011;23698;52.014;5.190;2023-05-10T07:55:14;22.30;;;10.88;;
37859;SDS011;23698;52.014;5.190;2023-05-10T07:58:01;22.98;;;12.65;;
37859;SDS011;23698;52.014;5.190;2023-05-10T08:00:49;20.00;;;10.90;;
37859;SDS011;23698;52.014;5.190;2023-05-10T08:03:36;15.98;;;9.65;;
37859;SDS011;23698;52.014;5.190;2023-05-10T08:06:23;17.00;;;10.00;;
37859;SDS011;23698;52.014;5.190;2023-05-10T08:09:11;17.80;;;10.13;;
37859;SDS011;23698;52.014;5.190;2023-05-10T08:11:58;16.48;;;10.43;;
37859;SDS011;23698;52.014;5.190;2023-05-10T08:14:45;16.67;;;9.43;;
37859;SDS011;23698;52.014;5.190;2023-05-10T08:17:32;19.55;;;10.93;;
37859;SDS011;23698;52.014;5.190;2023-05-10T08:20:19;19.48;;;10.70;;
37859;SDS011;23698;52.014;5.190;2023-05-10T08:23:06;14.35;;;8.93;;
37859;SDS011;23698;52.014;5.190;2023-05-10T08:25:53;15.63;;;9.18;;
37859;SDS011;23698;52.014;5.190;2023-05-10T08:28:39;16.17;;;8.93;;
37859;SDS011;23698;52.014;5.190;2023-05-10T08:31:25;12.48;;;8.73;;
37859;SDS011;23698;52.014;5.190;2023-05-10T08:34:13;14.48;;;9.05;;
37859;SDS011;23698;52.014;5.190;2023-05-10T08:37:00;15.93;;;9.40;;
37859;SDS011;23698;52.014;5.190;2023-05-10T08:39:46;14.38;;;8.77;;
37859;SDS011;23698;52.014;5.190;2023-05-10T08:42:33;12.57;;;8.73;;
37859;SDS011;23698;52.014;5.190;2023-05-10T08:45:23;14.85;;;8.80;;
37859;SDS011;23698;52.014;5.190;2023-05-10T08:48:10;12.02;;;8.30;;
37859;SDS011;23698;52.014;5.190;2023-05-10T08:50:58;16.80;;;8.75;;
37859;SDS011;23698;52.014;5.190;2023-05-10T08:53:46;15.07;;;8.15;;
37859;SDS011;23698;52.014;5.190;2023-05-10T08:56:33;12.07;;;7.53;;
37859;SDS011;23698;52.014;5.190;2023-05-10T08:59:19;11.43;;;7.53;;
37859;SDS011;23698;52.014;5.190;2023-05-10T09:02:06;12.93;;;7.38;;
37859;SDS011;23698;52.014;5.190;2023-05-10T09:04:55;12.90;;;7.10;;
37859;SDS011;23698;52.014;5.190;2023-05-10T09:07:43;12.88;;;6.65;;
37859;SDS011;23698;52.014;5.190;2023-05-10T09:10:29;13.18;;;7.32;;
37859;SDS011;23698;52.014;5.190;2023-05-10T09:13:17;9.93;;;6.25;;
37859;SDS011;23698;52.014;5.190;2023-05-10T09:16:04;10.32;;;6.75;;
37859;SDS011;23698;52.014;5.190;2023-05-10T09:19:05;8.50;;;6.25;;
37859;SDS011;23698;52.014;5.190;2023-05-10T09:21:51;10.13;;;6.22;;
37859;SDS011;23698;52.014;5.190;2023-05-10T09:24:39;11.25;;;5.65;;
37859;SDS011;23698;52.014;5.190;2023-05-10T09:27:30;7.85;;;4.65;;
37859;SDS011;23698;52.014;5.190;2023-05-10T09:30:16;8.35;;;5.30;;
37859;SDS011;23698;52.014;5.190;2023-05-10T09:33:08;8.25;;;4.88;;
37859;SDS011;23698;52.014;5.190;2023-05-10T09:35:55;8.75;;;5.50;;
37859;SDS011;23698;52.014;5.190;2023-05-10T09:38:47;7.00;;;4.68;;
37859;SDS011;23698;52.014;5.190;2023-05-10T09:41:35;10.30;;;5.15;;
37859;SDS011;23698;52.014;5.190;2023-05-10T09:44:21;6.65;;;4.45;;
37859;SDS011;23698;52.014;5.190;2023-05-10T09:47:08;7.88;;;5.05;;
37859;SDS011;23698;52.014;5.190;2023-05-10T09:49:54;6.60;;;4.68;;
37859;SDS011;23698;52.014;5.190;2023-05-10T09:52:46;8.75;;;5.80;;
37859;SDS011;23698;52.014;5.190;2023-05-10T09:55:40;12.45;;;6.18;;
37859;SDS011;23698;52.014;5.190;2023-05-10T09:58:30;7.07;;;5.10;;
37859;SDS011;23698;52.014;5.190;2023-05-10T10:01:16;7.95;;;5.50;;
37859;SDS011;23698;52.014;5.190;2023-05-10T10:04:03;7.75;;;5.10;;
37859;SDS011;23698;52.014;5.190;2023-05-10T10:07:01;8.93;;;4.95;;
37859;SDS011;23698;52.014;5.190;2023-05-10T10:09:48;7.45;;;4.72;;
37859;SDS011;23698;52.014;5.190;2023-05-10T10:12:35;7.32;;;5.28;;
37859;SDS011;23698;52.014;5.190;2023-05-10T13:12:41;8.63;;;5.25;;
37859;SDS011;23698;52.014;5.190;2023-05-10T13:15:27;9.25;;;6.47;;
37859;SDS011;23698;52.014;5.190;2023-05-10T13:18:16;11.93;;;6.72;;
37859;SDS011;23698;52.014;5.190;2023-05-10T13:21:02;9.68;;;6.63;;
37859;SDS011;23698;52.014;5.190;2023-05-10T13:23:50;12.38;;;7.53;;
37859;SDS011;23698;52.014;5.190;2023-05-10T13:26:36;11.70;;;7.28;;
37859;SDS011;23698;52.014;5.190;2023-05-10T13:29:24;15.10;;;8.65;;
37859;SDS011;23698;52.014;5.190;2023-05-10T13:32:10;14.93;;;8.52;;
37859;SDS011;23698;52.014;5.190;2023-05-10T13:34:57;12.05;;;7.60;;
37859;SDS011;23698;52.014;5.190;2023-05-10T13:37:43;13.57;;;9.10;;
37859;SDS011;23698;52.014;5.190;2023-05-10T13:40:30;10.52;;;7.50;;
37859;SDS011;23698;52.014;5.190;2023-05-10T13:43:19;11.30;;;7.70;;
37859;SDS011;23698;52.014;5.190;2023-05-10T13:46:07;12.30;;;7.57;;
37859;SDS011;23698;52.014;5.190;2023-05-10T13:48:53;12.13;;;7.35;;
37859;SDS011;23698;52.014;5.190;2023-05-10T13:51:39;15.90;;;8.00;;
37859;SDS011;23698;52.014;5.190;2023-05-10T13:54:26;12.82;;;8.13;;
37859;SDS011;23698;52.014;5.190;2023-05-10T13:57:14;11.18;;;7.50;;
37859;SDS011;23698;52.014;5.190;2023-05-10T14:00:01;11.70;;;7.07;;
37859;SDS011;23698;52.014;5.190;2023-05-10T14:02:53;12.52;;;7.18;;
37859;SDS011;23698;52.014;5.190;2023-05-10T14:05:39;11.70;;;7.22;;
37859;SDS011;23698;52.014;5.190;2023-05-10T14:08:26;11.60;;;7.65;;
37859;SDS011;23698;52.014;5.190;2023-05-10T14:11:12;11.00;;;7.13;;
37859;SDS011;23698;52.014;5.190;2023-05-10T14:14:00;13.15;;;7.30;;
37859;SDS011;23698;52.014;5.190;2023-05-10T14:16:47;12.48;;;7.07;;
37859;SDS011;23698;52.014;5.190;2023-05-10T14:19:35;14.18;;;7.82;;
37859;SDS011;23698;52.014;5.190;2023-05-10T14:22:21;14.57;;;7.88;;
37859;SDS011;23698;52.014;5.190;2023-05-10T14:25:08;11.63;;;7.38;;
37859;SDS011;23698;52.014;5.190;2023-05-10T14:27:55;12.93;;;8.10;;
37859;SDS011;23698;52.014;5.190;2023-05-10T14:30:41;11.50;;;8.05;;
37859;SDS011;23698;52.014;5.190;2023-05-10T14:33:27;14.07;;;8.02;;
37859;SDS011;23698;52.014;5.190;2023-05-10T14:36:15;15.13;;;8.45;;
37859;SDS011;23698;52.014;5.190;2023-05-10T14:39:02;11.25;;;7.82;;
37859;SDS011;23698;52.014;5.190;2023-05-10T14:41:49;14.52;;;8.43;;
37859;SDS011;23698;52.014;5.190;2023-05-10T14:44:35;16.15;;;9.32;;
37859;SDS011;23698;52.014;5.190;2023-05-10T14:47:21;11.95;;;7.47;;
37859;SDS011;23698;52.014;5.190;2023-05-10T14:50:07;14.07;;;8.02;;
37859;SDS011;23698;52.014;5.190;2023-05-10T14:52:57;13.85;;;7.05;;
37859;SDS011;23698;52.014;5.190;2023-05-10T14:55:44;10.98;;;7.43;;
37859;SDS011;23698;52.014;5.190;2023-05-10T14:58:30;11.88;;;7.32;;
37859;SDS011;23698;52.014;5.190;2023-05-10T16:03:10;14.77;;;7.68;;
37859;SDS011;23698;52.014;5.190;2023-05-10T16:05:57;12.63;;;7.80;;
37859;SDS011;23698;52.014;5.190;2023-05-10T16:08:44;12.85;;;7.40;;
37859;SDS011;23698;52.014;5.190;2023-05-10T16:11:31;12.60;;;7.68;;
37859;SDS011;23698;52.014;5.190;2023-05-10T16:14:17;10.70;;;6.80;;
37859;SDS011;23698;52.014;5.190;2023-05-10T17:42:21;13.05;;;6.60;;
37859;SDS011;23698;52.014;5.190;2023-05-10T17:45:21;11.20;;;7.13;;
37859;SDS011;23698;52.014;5.190;2023-05-10T17:48:08;13.05;;;7.70;;
37859;SDS011;23698;52.014;5.190;2023-05-10T17:50:55;11.52;;;7.25;;
37859;SDS011;23698;52.014;5.190;2023-05-10T17:53:42;12.32;;;7.93;;
37859;SDS011;23698;52.014;5.190;2023-05-10T17:56:28;10.75;;;6.85;;
37859;SDS011;23698;52.014;5.190;2023-05-10T17:59:16;13.23;;;6.38;;
37859;SDS011;23698;52.014;5.190;2023-05-10T18:02:02;15.75;;;7.72;;
37859;SDS011;23698;52.014;5.190;2023-05-10T18:04:48;14.82;;;8.32;;
37859;SDS011;23698;52.014;5.190;2023-05-10T18:07:35;16.50;;;8.40;;
37859;SDS011;23698;52.014;5.190;2023-05-10T18:10:22;12.27;;;7.35;;
37859;SDS011;23698;52.014;5.190;2023-05-10T18:13:09;12.93;;;7.18;;
37859;SDS011;23698;52.014;5.190;2023-05-10T18:15:57;13.52;;;6.82;;
37859;SDS011;23698;52.014;5.190;2023-05-10T18:18:43;10.65;;;6.30;;
37859;SDS011;23698;52.014;5.190;2023-05-10T18:21:29;12.38;;;7.20;;
37859;SDS011;23698;52.014;5.190;2023-05-10T18:24:17;11.45;;;6.85;;
37859;SDS011;23698;52.014;5.190;2023-05-10T18:27:21;11.35;;;6.68;;
37859;SDS011;23698;52.014;5.190;2023-05-10T18:30:07;12.98;;;7.35;;
37859;SDS011;23698;52.014;5.190;2023-05-10T18:32:57;14.40;;;8.07;;
37859;SDS011;23698;52.014;5.190;2023-05-10T18:35:43;14.15;;;7.45;;
37859;SDS011;23698;52.014;5.190;2023-05-10T18:38:30;11.60;;;7.03;;
37859;SDS011;23698;52.014;5.190;2023-05-10T18:41:17;12.10;;;7.00;;
37859;SDS011;23698;52.014;5.190;2023-05-10T18:44:03;13.95;;;7.55;;
37859;SDS011;23698;52.014;5.190;2023-05-10T18:46:50;10.95;;;6.93;;
37859;SDS011;23698;52.014;5.190;2023-05-10T18:49:40;16.13;;;8.52;;
37859;SDS011;23698;52.014;5.190;2023-05-10T18:52:27;11.75;;;7.60;;
37859;SDS011;23698;52.014;5.190;2023-05-10T18:55:13;13.68;;;7.10;;
37859;SDS011;23698;52.014;5.190;2023-05-10T18:58:00;10.90;;;6.72;;
37859;SDS011;23698;52.014;5.190;2023-05-10T19:50:18;24.20;;;10.85;;
37859;SDS011;23698;52.014;5.190;2023-05-10T22:03:02;28.65;;;12.93;;
37859;SDS011;23698;52.014;5.190;2023-05-10T22:05:48;23.08;;;13.32;;
37859;SDS011;23698;52.014;5.190;2023-05-10T22:08:35;27.38;;;12.85;;
37859;SDS011;23698;52.014;5.190;2023-05-10T22:11:21;31.73;;;14.55;;
37859;SDS011;23698;52.014;5.190;2023-05-10T22:14:07;24.58;;;12.73;;
